Time;durP1;ratioP1;P1;durP2;ratioP2;P2;SDS_P1;SDS_P2;PMS_P1;PMS_P2;Temp;Humidity;BMP_temperature;BMP_pressure;BME280_temperature;BME280_humidity;BME280_pressure;Samples;Min_cycle;Max_cycle;Signal;HPM_P1;HPM_P2
2023/07/22 00:00:15;;;;;;;11.05;4.40;;;;;;;-140.66;100.00;55571.53;5116546;28;20467;-75
2023/07/22 00:03:00;;;;;;;10.68;4.47;;;;;;;-140.66;100.00;55571.53;5117913;28;20093;-75
2023/07/22 00:05:46;;;;;;;7.85;4.72;;;;;;;-140.66;100.00;55571.53;5117955;28;20157;-74
2023/07/22 00:08:33;;;;;;;11.00;4.80;;;;;;;-140.66;100.00;55571.53;5117082;28;20031;-75
2023/07/22 00:11:19;;;;;;;8.43;4.57;;;;;;;-140.66;100.00;55571.53;5117800;28;20081;-75
2023/07/22 00:14:06;;;;;;;8.10;4.65;;;;;;;-140.66;100.00;55571.53;5117289;28;20106;-74
2023/07/22 00:16:52;;;;;;;7.97;5.32;;;;;;;-140.66;100.00;55571.53;5102806;28;20023;-75
2023/07/22 00:19:37;;;;;;;9.50;5.55;;;;;;;-140.66;100.00;55571.53;5116864;28;20047;-74
2023/07/22 00:22:26;;;;;;;8.75;6.45;;;;;;;-140.66;100.00;55571.53;5117162;28;20038;-75
2023/07/22 00:25:12;;;;;;;9.40;6.53;;;;;;;-140.66;100.00;55571.53;5117654;28;20034;-75
2023/07/22 00:27:58;;;;;;;10.10;5.93;;;;;;;-140.66;100.00;55571.53;5102858;28;20114;-75
2023/07/22 00:30:44;;;;;;;28.48;5.07;;;;;;;-140.66;100.00;55571.53;5117113;28;20038;-75
2023/07/22 00:33:30;;;;;;;21.15;4.93;;;;;;;-140.66;100.00;55571.53;5116815;28;20102;-75
2023/07/22 00:36:15;;;;;;;21.05;4.50;;;;;;;-140.66;100.00;55571.53;5116467;28;20028;-76
2023/07/22 00:39:01;;;;;;;9.80;4.40;;;;;;;-140.66;100.00;55571.53;5117091;28;20114;-75
2023/07/22 00:41:47;;;;;;;7.75;4.30;;;;;;;-140.66;100.00;55571.53;5102079;28;20024;-74
2023/07/22 00:44:33;;;;;;;10.77;4.90;;;;;;;-140.66;100.00;55571.53;5117770;28;20020;-75
2023/07/22 00:47:20;;;;;;;8.48;4.60;;;;;;;-140.66;100.00;55571.53;5102471;28;20027;-74
2023/07/22 00:50:07;;;;;;;9.75;4.40;;;;;;;-140.66;100.00;55571.53;5101372;28;20023;-75
2023/07/22 00:52:53;;;;;;;8.52;4.80;;;;;;;-140.66;100.00;55571.53;5116481;28;20549;-74
2023/07/22 00:55:43;;;;;;;6.93;4.55;;;;;;;-140.66;100.00;55571.53;5124426;28;20073;-74
2023/07/22 00:58:28;;;;;;;9.10;4.10;;;;;;;-140.66;100.00;55571.53;5123041;28;20019;-75
2023/07/22 01:01:14;;;;;;;11.60;3.08;;;;;;;-140.66;100.00;55571.53;5117130;28;20399;-75
2023/07/22 01:04:01;;;;;;;10.52;3.10;;;;;;;-140.66;100.00;55571.53;5102547;28;20507;-75
2023/07/22 01:06:49;;;;;;;7.80;2.42;;;;;;;-140.66;100.00;55571.53;5131800;28;20357;-75
2023/07/22 01:09:39;;;;;;;8.85;2.20;;;;;;;-140.66;100.00;55571.53;5131729;28;20047;-75
2023/07/22 01:12:24;;;;;;;11.52;2.03;;;;;;;-140.66;100.00;55571.53;5101706;28;20035;-75
2023/07/22 01:15:10;;;;;;;15.52;2.65;;;;;;;-140.66;100.00;55571.53;5115730;28;20032;-75
2023/07/22 01:18:01;;;;;;;7.28;2.65;;;;;;;-140.66;100.00;55571.53;5116098;28;20417;-74
2023/07/22 01:20:47;;;;;;;6.82;2.80;;;;;;;-140.66;100.00;55571.53;5115995;28;20066;-75
2023/07/22 01:23:33;;;;;;;4.57;2.30;;;;;;;-140.66;100.00;55571.53;5115942;28;20053;-75
2023/07/22 01:26:19;;;;;;;6.85;1.90;;;;;;;-140.66;100.00;55571.53;5115948;28;20073;-75
2023/07/22 01:29:05;;;;;;;6.50;1.75;;;;;;;-140.66;100.00;55571.53;5101025;28;20120;-76
2023/07/22 01:31:53;;;;;;;8.45;1.95;;;;;;;-140.66;100.00;55571.53;5134519;28;20034;-72
2023/07/22 01:34:39;;;;;;;3.40;1.50;;;;;;;-140.66;100.00;55571.53;5121301;28;20028;-74
2023/07/22 01:37:25;;;;;;;3.03;1.67;;;;;;;-140.66;100.00;55571.53;5118693;28;20039;-73
2023/07/22 01:40:12;;;;;;;5.25;1.80;;;;;;;-140.66;100.00;55571.53;5118491;28;20031;-74
2023/07/22 01:42:57;;;;;;;4.43;1.70;;;;;;;-140.66;100.00;55571.53;5116369;28;20386;-74
2023/07/22 01:45:43;;;;;;;4.78;2.00;;;;;;;-140.66;100.00;55571.53;5100014;28;20020;-74
2023/07/22 01:48:29;;;;;;;4.78;2.20;;;;;;;-140.66;100.00;55571.53;5115780;28;20400;-75
2023/07/22 01:51:14;;;;;;;5.32;1.90;;;;;;;-140.66;100.00;55571.53;5115082;28;20028;-75
2023/07/22 01:54:00;;;;;;;7.53;1.60;;;;;;;-140.66;100.00;55571.53;5115337;28;20042;-75
2023/07/22 01:56:46;;;;;;;5.68;2.00;;;;;;;-140.66;100.00;55571.53;5101701;28;20031;-75
2023/07/22 01:59:32;;;;;;;7.63;2.00;;;;;;;-140.66;100.00;55571.53;5100670;28;20031;-75
2023/07/22 02:02:19;;;;;;;6.97;2.30;;;;;;;-140.66;100.00;55571.53;5114386;28;20023;-75
2023/07/22 02:05:05;;;;;;;3.53;2.05;;;;;;;-140.66;100.00;55571.53;5115926;28;20023;-74
2023/07/22 02:07:51;;;;;;;6.35;2.35;;;;;;;-140.66;100.00;55571.53;5115578;28;20024;-74
2023/07/22 02:10:37;;;;;;;4.93;2.20;;;;;;;-140.66;100.00;55571.53;5115023;28;20023;-75
2023/07/22 02:13:23;;;;;;;4.85;2.35;;;;;;;-140.66;100.00;55571.53;5101679;28;20027;-75
2023/07/22 02:16:11;;;;;;;10.13;2.72;;;;;;;-140.66;100.00;55571.53;5114882;28;20171;-75
2023/07/22 02:18:57;;;;;;;4.18;2.10;;;;;;;-140.66;100.00;55571.53;5100247;28;20019;-75
2023/07/22 02:21:43;;;;;;;4.68;1.58;;;;;;;-140.66;100.00;55571.53;5114881;28;20124;-74
2023/07/22 02:24:29;;;;;;;4.60;1.73;;;;;;;-140.66;100.00;55571.53;5114311;28;20028;-74
2023/07/22 02:27:14;;;;;;;4.20;1.80;;;;;;;-140.66;100.00;55571.53;5115211;28;20030;-75
2023/07/22 02:30:00;;;;;;;4.40;1.70;;;;;;;-140.66;100.00;55571.53;5100330;28;20028;-74
2023/07/22 02:32:46;;;;;;;4.88;2.10;;;;;;;-140.66;100.00;55571.53;5101373;28;20115;-75
2023/07/22 02:35:32;;;;;;;8.23;2.42;;;;;;;-140.66;100.00;55571.53;5114401;28;20049;-75
2023/07/22 02:38:18;;;;;;;7.00;2.30;;;;;;;-140.66;100.00;55571.53;5115130;28;20440;-76
2023/07/22 02:41:07;;;;;;;4.93;2.00;;;;;;;-140.66;100.00;55571.53;5114107;28;20027;-75
2023/07/22 02:43:53;;;;;;;9.75;2.33;;;;;;;-140.66;100.00;55571.53;5114588;28;20385;-75
2023/07/22 02:46:38;;;;;;;5.35;2.50;;;;;;;-140.66;100.00;55571.53;5114393;28;20106;-74
2023/07/22 02:49:24;;;;;;;7.07;2.78;;;;;;;-140.66;100.00;55571.53;5086878;28;20107;-75
2023/07/22 02:52:10;;;;;;;7.82;2.50;;;;;;;-140.66;100.00;55571.53;5114793;28;20023;-73
2023/07/22 02:55:10;;;;;;;3.65;2.60;;;;;;;-140.66;100.00;55571.53;5114171;28;20197;-76
2023/07/22 02:57:56;;;;;;;5.93;2.50;;;;;;;-140.66;100.00;55571.53;5114975;28;20208;-76
2023/07/22 03:00:43;;;;;;;6.88;2.90;;;;;;;-140.66;100.00;55571.53;5114660;28;20347;-75
2023/07/22 03:03:28;;;;;;;6.95;2.50;;;;;;;-140.66;100.00;55571.53;5114787;28;20042;-75
2023/07/22 03:06:14;;;;;;;3.75;2.35;;;;;;;-140.66;100.00;55571.53;5100944;28;20027;-74
2023/07/22 03:09:00;;;;;;;7.65;2.88;;;;;;;-140.66;100.00;55571.53;5114227;28;20062;-75
2023/07/22 03:11:46;;;;;;;6.45;2.55;;;;;;;-140.66;100.00;55571.53;5114745;28;20434;-74
2023/07/22 03:14:36;;;;;;;3.53;2.60;;;;;;;-140.66;100.00;55571.53;5114695;28;20062;-75
2023/07/22 03:17:22;;;;;;;11.02;2.92;;;;;;;-140.66;100.00;55571.53;5115373;28;20028;-75
2023/07/22 03:20:14;;;;;;;6.78;2.58;;;;;;;-140.66;100.00;55571.53;5113931;28;20036;-74
2023/07/22 03:23:00;;;;;;;7.45;2.50;;;;;;;-140.66;100.00;55571.53;5114929;28;20020;-75
2023/07/22 03:25:45;;;;;;;5.47;2.45;;;;;;;-140.66;100.00;55571.53;5114858;28;20031;-74
2023/07/22 03:28:31;;;;;;;5.82;2.50;;;;;;;-140.66;100.00;55571.53;5114136;28;20023;-74
2023/07/22 03:31:17;;;;;;;8.20;2.70;;;;;;;-140.66;100.00;55571.53;5114171;28;20031;-75
2023/07/22 03:34:03;;;;;;;7.28;2.70;;;;;;;-140.66;100.00;55571.53;5114585;28;20351;-76
2023/07/22 03:36:49;;;;;;;6.70;2.45;;;;;;;-140.66;100.00;55571.53;5114910;28;20463;-74
2023/07/22 03:39:35;;;;;;;9.40;2.85;;;;;;;-140.66;100.00;55571.53;5113763;28;20089;-74
2023/07/22 03:42:20;;;;;;;9.23;2.75;;;;;;;-140.66;100.00;55571.53;5099593;28;20031;-75
2023/07/22 03:45:09;;;;;;;4.30;2.70;;;;;;;-140.66;100.00;55571.53;5113784;28;20063;-74
2023/07/22 03:47:59;;;;;;;3.78;2.83;;;;;;;-140.66;100.00;55571.53;5113921;28;20107;-75
2023/07/22 03:50:45;;;;;;;5.55;2.90;;;;;;;-140.66;100.00;55571.53;5114690;28;20351;-75
2023/07/22 03:53:33;;;;;;;7.32;3.22;;;;;;;-140.66;100.00;55571.53;5114211;28;20028;-75
2023/07/22 03:56:19;;;;;;;7.25;3.53;;;;;;;-140.66;100.00;55571.53;5113599;28;20504;-75
2023/07/22 03:59:05;;;;;;;5.43;3.50;;;;;;;-140.66;100.00;55571.53;5114810;28;20081;-74
2023/07/22 04:01:51;;;;;;;11.88;4.35;;;;;;;-140.66;100.00;55571.53;5114104;28;20106;-75
2023/07/22 04:04:37;;;;;;;8.27;4.63;;;;;;;-140.66;100.00;55571.53;5114204;28;20114;-75
2023/07/22 04:07:22;;;;;;;8.70;4.28;;;;;;;-140.66;100.00;55571.53;5116042;28;20028;-75
2023/07/22 04:10:08;;;;;;;15.25;4.05;;;;;;;-140.66;100.00;55571.53;5103609;28;20170;-75
2023/07/22 04:12:54;;;;;;;9.30;4.25;;;;;;;-140.66;100.00;55571.53;5117889;28;20027;-76
2023/07/22 04:15:40;;;;;;;13.45;4.00;;;;;;;-140.66;100.00;55571.53;5117451;28;20035;-76
2023/07/22 04:18:25;;;;;;;15.25;3.67;;;;;;;-140.66;100.00;55571.53;5103312;28;20093;-75
2023/07/22 04:21:11;;;;;;;9.88;4.63;;;;;;;-140.66;100.00;55571.53;5116059;28;20117;-75
2023/07/22 04:23:57;;;;;;;10.00;4.68;;;;;;;-140.66;100.00;55571.53;5102841;28;20031;-74
2023/07/22 04:26:43;;;;;;;13.65;6.15;;;;;;;-140.66;100.00;55571.53;5116825;28;20035;-75
2023/07/22 04:29:29;;;;;;;12.70;5.07;;;;;;;-140.66;100.00;55571.53;5102484;28;20024;-76
2023/07/22 04:32:14;;;;;;;14.02;5.07;;;;;;;-140.66;100.00;55571.53;5117348;28;20110;-74
2023/07/22 04:35:00;;;;;;;9.10;5.38;;;;;;;-140.66;100.00;55571.53;5118103;28;20028;-74
2023/07/22 04:37:46;;;;;;;8.98;4.70;;;;;;;-140.66;100.00;55571.53;5115761;28;20023;-74
2023/07/22 04:40:32;;;;;;;10.32;4.60;;;;;;;-140.66;100.00;55571.53;5119116;28;20362;-74
2023/07/22 04:43:18;;;;;;;10.05;4.82;;;;;;;-140.66;100.00;55571.53;5118175;28;20031;-74
2023/07/22 04:46:04;;;;;;;14.02;5.65;;;;;;;-140.66;100.00;55571.53;5102129;28;20420;-75
2023/07/22 04:48:49;;;;;;;13.43;5.13;;;;;;;-140.66;100.00;55571.53;5116935;28;20478;-74
2023/07/22 04:51:35;;;;;;;9.75;4.70;;;;;;;-140.66;100.00;55571.53;5115819;28;20031;-74
2023/07/22 04:54:21;;;;;;;9.43;4.57;;;;;;;-140.66;100.00;55571.53;5116331;28;20493;-75
2023/07/22 04:57:07;;;;;;;6.10;4.40;;;;;;;-140.66;100.00;55571.53;5116710;28;20455;-75
2023/07/22 04:59:53;;;;;;;9.20;4.97;;;;;;;-140.66;100.00;55571.53;5116186;28;20115;-75
2023/07/22 05:02:38;;;;;;;10.35;4.80;;;;;;;-140.66;100.00;55571.53;5101986;28;20036;-75
2023/07/22 05:05:24;;;;;;;11.60;4.57;;;;;;;-140.66;100.00;55571.53;5116582;28;20471;-74
2023/07/22 05:08:10;;;;;;;12.20;5.78;;;;;;;-140.66;100.00;55571.53;5116949;28;20030;-74
2023/07/22 05:10:56;;;;;;;10.40;4.65;;;;;;;-140.66;100.00;55571.53;5101367;28;20034;-74
2023/07/22 05:13:42;;;;;;;5.88;4.03;;;;;;;-140.66;100.00;55571.53;5116260;28;20031;-74
2023/07/22 05:16:27;;;;;;;7.60;4.53;;;;;;;-140.66;100.00;55571.53;5116473;28;20030;-75
2023/07/22 05:19:13;;;;;;;10.13;4.50;;;;;;;-140.66;100.00;55571.53;5115949;28;20031;-75
2023/07/22 05:21:59;;;;;;;9.15;4.50;;;;;;;-140.66;100.00;55571.53;5101744;28;20040;-74
2023/07/22 05:24:44;;;;;;;9.43;4.43;;;;;;;-140.66;100.00;55571.53;5116292;28;20023;-75
2023/07/22 05:27:30;;;;;;;8.55;4.68;;;;;;;-140.66;100.00;55571.53;5116373;28;20023;-75
2023/07/22 05:30:16;;;;;;;8.75;4.63;;;;;;;-140.66;100.00;55571.53;5101890;28;20047;-73
2023/07/22 05:33:02;;;;;;;8.63;4.60;;;;;;;-140.66;100.00;55571.53;5115312;28;20341;-75
2023/07/22 05:35:47;;;;;;;8.20;4.93;;;;;;;-140.66;100.00;55571.53;5116203;28;20020;-75
2023/07/22 05:38:33;;;;;;;14.45;4.80;;;;;;;-140.66;100.00;55571.53;5115499;28;20024;-78
2023/07/22 05:41:19;;;;;;;7.57;4.70;;;;;;;-140.66;100.00;55571.53;5101338;28;20055;-76
2023/07/22 05:44:05;;;;;;;13.45;4.82;;;;;;;-140.66;100.00;55571.53;5115775;28;20034;-74
2023/07/22 05:46:50;;;;;;;7.35;4.53;;;;;;;-140.66;100.00;55571.53;5114970;28;20089;-74
2023/07/22 05:49:36;;;;;;;8.30;4.82;;;;;;;-140.66;100.00;55571.53;5101428;28;20027;-75
2023/07/22 05:52:22;;;;;;;10.57;5.15;;;;;;;-140.66;100.00;55571.53;5115709;28;20344;-75
2023/07/22 05:55:08;;;;;;;10.32;4.70;;;;;;;-140.66;100.00;55571.53;5115103;28;20030;-75
2023/07/22 05:57:54;;;;;;;10.02;4.53;;;;;;;-140.66;100.00;55571.53;5116163;28;20028;-74
2023/07/22 06:00:39;;;;;;;6.57;4.47;;;;;;;-140.66;100.00;55571.53;5100141;28;20023;-76
2023/07/22 06:03:25;;;;;;;10.20;4.38;;;;;;;-140.66;100.00;55571.53;5114849;28;20042;-75
2023/07/22 06:06:11;;;;;;;7.75;4.60;;;;;;;-140.66;100.00;55571.53;5115503;28;20019;-75
2023/07/22 06:08:57;;;;;;;6.88;4.45;;;;;;;-140.66;100.00;55571.53;5100262;28;20020;-76
2023/07/22 06:11:42;;;;;;;12.73;4.25;;;;;;;-140.66;100.00;55571.53;5115758;28;20031;-75
2023/07/22 06:14:28;;;;;;;12.07;5.38;;;;;;;-140.66;100.00;55571.53;5114848;28;20024;-75
2023/07/22 06:17:14;;;;;;;8.77;4.35;;;;;;;-140.66;100.00;55571.53;5114787;28;20027;-75
2023/07/22 06:20:00;;;;;;;11.38;4.53;;;;;;;-140.66;100.00;55571.53;5114690;28;20039;-75
2023/07/22 06:22:45;;;;;;;9.75;4.35;;;;;;;-140.66;100.00;55571.53;5115156;28;20031;-74
2023/07/22 06:25:31;;;;;;;16.17;4.30;;;;;;;-140.66;100.00;55571.53;5114521;28;20510;-76
2023/07/22 06:28:17;;;;;;;11.40;4.38;;;;;;;-140.66;100.00;55571.53;5114614;28;20032;-76
2023/07/22 06:31:02;;;;;;;9.20;4.30;;;;;;;-140.66;100.00;55571.53;5113110;28;20034;-76
2023/07/22 06:33:48;;;;;;;6.05;4.10;;;;;;;-140.66;100.00;55571.53;5115720;28;20043;-75
2023/07/22 06:36:34;;;;;;;7.50;3.80;;;;;;;-140.66;100.00;55571.53;5116336;28;20106;-75
2023/07/22 06:39:20;;;;;;;9.32;4.57;;;;;;;-140.66;100.00;55571.53;5117041;28;20023;-75
2023/07/22 06:42:05;;;;;;;10.65;3.90;;;;;;;-140.66;100.00;55571.53;5116666;28;20027;-76
2023/07/22 06:44:51;;;;;;;6.93;4.30;;;;;;;-140.66;100.00;55571.53;5103433;28;20122;-75
2023/07/22 06:47:37;;;;;;;8.90;4.00;;;;;;;-140.66;100.00;55571.53;5116976;28;20037;-75
2023/07/22 06:50:23;;;;;;;8.63;4.03;;;;;;;-140.66;100.00;55571.53;5116737;28;20414;-75
2023/07/22 06:53:09;;;;;;;12.77;4.45;;;;;;;-140.66;100.00;55571.53;5116172;28;20348;-74
2023/07/22 06:55:54;;;;;;;10.13;4.28;;;;;;;-140.66;100.00;55571.53;5116658;28;20039;-73
2023/07/22 06:58:40;;;;;;;7.60;3.60;;;;;;;-140.66;100.00;55571.53;5117063;28;20364;-75
2023/07/22 07:01:26;;;;;;;10.23;3.90;;;;;;;-140.66;100.00;55571.53;5114303;28;20028;-76
2023/07/22 07:04:12;;;;;;;10.95;4.00;;;;;;;-140.66;100.00;55571.53;5114818;28;20120;-76
2023/07/22 07:06:59;;;;;;;7.03;3.42;;;;;;;-140.66;100.00;55571.53;5114606;28;20038;-76
2023/07/22 07:09:45;;;;;;;7.28;3.75;;;;;;;-140.66;100.00;55571.53;5115022;28;20111;-77
2023/07/22 07:12:30;;;;;;;6.28;3.80;;;;;;;-140.66;100.00;55571.53;5114461;28;20024;-76
2023/07/22 07:15:16;;;;;;;4.85;3.70;;;;;;;-140.66;100.00;55571.53;5114645;28;20126;-77
2023/07/22 07:18:02;;;;;;;5.93;3.72;;;;;;;-140.66;100.00;55571.53;5114346;28;20028;-77
2023/07/22 07:20:48;;;;;;;11.68;4.05;;;;;;;-140.66;100.00;55571.53;5114311;28;20047;-77
2023/07/22 07:23:33;;;;;;;16.98;3.97;;;;;;;-140.66;100.00;55571.53;5114241;28;20032;-76
2023/07/22 07:26:20;;;;;;;9.68;3.70;;;;;;;-140.66;100.00;55571.53;5114596;28;20055;-77
2023/07/22 07:29:06;;;;;;;6.30;3.22;;;;;;;-140.66;100.00;55571.53;5113630;28;20024;-76
2023/07/22 07:31:52;;;;;;;9.30;3.42;;;;;;;-140.66;100.00;55571.53;5114047;28;20019;-75
2023/07/22 07:34:37;;;;;;;6.93;3.50;;;;;;;-140.66;100.00;55571.53;5099465;28;20098;-75
2023/07/22 07:37:23;;;;;;;5.97;3.80;;;;;;;-140.66;100.00;55571.53;5115402;28;20077;-75
2023/07/22 07:40:09;;;;;;;7.20;3.17;;;;;;;-140.66;100.00;55571.53;5114696;28;20046;-76
2023/07/22 07:42:55;;;;;;;6.38;3.33;;;;;;;-140.66;100.00;55571.53;5118499;28;20073;-76
2023/07/22 07:45:41;;;;;;;7.18;3.05;;;;;;;-140.66;100.00;55571.53;5103621;28;20024;-75
2023/07/22 07:48:26;;;;;;;6.70;3.40;;;;;;;-140.66;100.00;55571.53;5117816;28;20031;-76
2023/07/22 07:51:14;;;;;;;8.07;3.05;;;;;;;-140.66;100.00;55571.53;5118292;28;20035;-76
2023/07/22 07:54:00;;;;;;;13.07;2.92;;;;;;;-140.66;100.00;55571.53;5120891;28;20034;-75
2023/07/22 07:56:45;;;;;;;10.60;2.60;;;;;;;-140.66;100.00;55571.53;5104783;28;20136;-75
2023/07/22 07:59:31;;;;;;;10.40;3.33;;;;;;;-140.66;100.00;55571.53;5104975;28;20028;-76
2023/07/22 08:02:17;;;;;;;5.43;2.47;;;;;;;-140.66;100.00;55571.53;5119041;28;20030;-76
2023/07/22 08:05:03;;;;;;;5.38;2.90;;;;;;;-140.66;100.00;55571.53;5117556;28;20513;-76
2023/07/22 08:07:49;;;;;;;2.95;2.03;;;;;;;-140.66;100.00;55571.53;5117635;28;20036;-75
2023/07/22 08:10:34;;;;;;;6.15;2.35;;;;;;;-140.66;100.00;55571.53;5102354;28;20023;-75
2023/07/22 08:13:20;;;;;;;5.88;2.30;;;;;;;-140.66;100.00;55571.53;5117244;28;20103;-75
2023/07/22 08:16:08;;;;;;;5.22;2.40;;;;;;;-140.66;100.00;55571.53;5117241;28;20031;-75
2023/07/22 08:18:54;;;;;;;5.78;2.45;;;;;;;-140.66;100.00;55571.53;5118228;28;20043;-76
2023/07/22 08:21:39;;;;;;;6.47;2.30;;;;;;;-140.66;100.00;55571.53;5102355;28;20047;-75
2023/07/22 08:24:25;;;;;;;5.90;2.60;;;;;;;-140.66;100.00;55571.53;5117438;28;20055;-76
2023/07/22 08:27:11;;;;;;;6.93;2.28;;;;;;;-140.66;100.00;55571.53;5115593;28;20105;-76
2023/07/22 08:29:56;;;;;;;6.50;2.47;;;;;;;-140.66;100.00;55571.53;5116796;28;20023;-76
2023/07/22 08:32:42;;;;;;;5.07;2.45;;;;;;;-140.66;100.00;55571.53;5116326;28;20024;-75
2023/07/22 08:35:28;;;;;;;6.70;2.25;;;;;;;-140.66;100.00;55571.53;5102038;28;20435;-75
2023/07/22 08:38:14;;;;;;;9.60;2.30;;;;;;;-140.66;100.00;55571.53;5102597;28;20347;-76
2023/07/22 08:41:00;;;;;;;6.03;2.30;;;;;;;-140.66;100.00;55571.53;5116400;28;20177;-75
2023/07/22 08:43:47;;;;;;;5.55;2.53;;;;;;;-140.66;100.00;55571.53;5117232;28;20050;-75
2023/07/22 08:46:35;;;;;;;7.13;2.50;;;;;;;-140.66;100.00;55571.53;5117228;28;20055;-76
2023/07/22 08:49:21;;;;;;;7.60;2.80;;;;;;;-140.66;100.00;55571.53;5117226;28;20085;-76
2023/07/22 08:52:07;;;;;;;7.15;2.50;;;;;;;-140.66;100.00;55571.53;5116804;28;20075;-75
2023/07/22 08:54:54;;;;;;;5.40;2.42;;;;;;;-140.66;100.00;55571.53;5101992;28;20462;-76
2023/07/22 08:57:41;;;;;;;6.43;2.40;;;;;;;-140.66;100.00;55571.53;5117474;28;20367;-76
2023/07/22 09:00:28;;;;;;;6.50;2.65;;;;;;;-140.66;100.00;55571.53;5116669;28;20020;-75
2023/07/22 09:03:14;;;;;;;6.13;2.42;;;;;;;-140.66;100.00;55571.53;5116654;28;20409;-75
2023/07/22 09:06:01;;;;;;;7.55;2.42;;;;;;;-140.66;100.00;55571.53;5116073;28;20023;-75
2023/07/22 09:08:47;;;;;;;8.32;2.42;;;;;;;-140.66;100.00;55571.53;5116836;28;20020;-76
2023/07/22 09:11:34;;;;;;;8.30;2.90;;;;;;;-140.66;100.00;55571.53;5116421;28;20054;-75
2023/07/22 09:14:21;;;;;;;6.47;2.50;;;;;;;-140.66;100.00;55571.53;5116356;28;20510;-75
2023/07/22 09:17:06;;;;;;;5.97;2.40;;;;;;;-140.66;100.00;55571.53;5116034;28;20027;-75
2023/07/22 09:19:53;;;;;;;6.82;2.42;;;;;;;-140.66;100.00;55571.53;5116284;28;20376;-76
2023/07/22 09:22:46;;;;;;;5.80;2.10;;;;;;;-140.66;100.00;55571.53;5116531;28;20106;-75
2023/07/22 09:25:33;;;;;;;12.77;2.90;;;;;;;-140.66;100.00;55571.53;5115192;28;20046;-76
2023/07/22 09:28:18;;;;;;;6.10;2.60;;;;;;;-140.66;100.00;55571.53;5115384;28;20089;-75
2023/07/22 09:31:04;;;;;;;7.50;2.13;;;;;;;-140.66;100.00;55571.53;5115244;28;20458;-74
2023/07/22 09:33:51;;;;;;;7.00;2.53;;;;;;;-140.66;100.00;55571.53;5116424;28;20119;-75
2023/07/22 09:36:51;;;;;;;7.50;2.50;;;;;;;-140.66;100.00;55571.53;5115130;28;20027;-75
2023/07/22 09:39:37;;;;;;;8.02;2.50;;;;;;;-140.66;100.00;55571.53;5115490;28;20112;-76
2023/07/22 09:42:25;;;;;;;10.48;2.63;;;;;;;-140.66;100.00;55571.53;5115077;28;20023;-76
2023/07/22 09:45:10;;;;;;;9.20;2.42;;;;;;;-140.66;100.00;55571.53;5115059;28;20102;-75
2023/07/22 09:47:57;;;;;;;7.05;2.50;;;;;;;-140.66;100.00;55571.53;5114318;28;20451;-75
2023/07/22 09:50:43;;;;;;;15.73;2.85;;;;;;;-140.66;100.00;55571.53;5115685;28;20023;-76
2023/07/22 09:53:29;;;;;;;9.95;2.50;;;;;;;-140.66;100.00;55571.53;5101389;28;20023;-75
2023/07/22 09:56:15;;;;;;;7.28;2.50;;;;;;;-140.66;100.00;55571.53;5115093;28;20051;-74
2023/07/22 09:59:04;;;;;;;7.60;2.60;;;;;;;-140.66;100.00;55571.53;5114843;28;20036;-75
2023/07/22 10:01:51;;;;;;;7.88;2.95;;;;;;;-140.66;100.00;55571.53;5115055;28;20036;-75
2023/07/22 10:04:39;;;;;;;5.15;2.65;;;;;;;-140.66;100.00;55571.53;5099935;28;20042;-74
2023/07/22 10:07:25;;;;;;;8.75;2.97;;;;;;;-140.66;100.00;55571.53;5100722;28;20055;-75
2023/07/22 10:10:19;;;;;;;7.50;3.00;;;;;;;-140.66;100.00;55571.53;5115011;28;20024;-75
2023/07/22 10:13:05;;;;;;;11.07;2.92;;;;;;;-140.66;100.00;55571.53;5115420;28;20374;-75
2023/07/22 10:15:52;;;;;;;9.95;3.00;;;;;;;-140.66;100.00;55571.53;5114979;28;20051;-76
2023/07/22 10:18:41;;;;;;;9.25;2.80;;;;;;;-140.66;100.00;55571.53;5115491;28;20360;-75
2023/07/22 10:21:28;;;;;;;8.18;2.78;;;;;;;-140.66;100.00;55571.53;5113954;28;20194;-75
2023/07/22 10:24:14;;;;;;;6.13;2.60;;;;;;;-140.66;100.00;55571.53;5114294;28;20110;-74
2023/07/22 10:27:00;;;;;;;13.77;2.90;;;;;;;-140.66;100.00;55571.53;5115310;28;20035;-76
2023/07/22 10:29:46;;;;;;;15.85;3.00;;;;;;;-140.66;100.00;55571.53;5114306;28;20016;-75
2023/07/22 10:32:35;;;;;;;8.18;2.80;;;;;;;-140.66;100.00;55571.53;5115989;28;20055;-76
2023/07/22 10:35:30;;;;;;;9.50;2.85;;;;;;;-140.66;100.00;55571.53;5114580;28;20110;-76
2023/07/22 10:38:16;;;;;;;8.77;2.78;;;;;;;-140.66;100.00;55571.53;5100596;28;20069;-75
2023/07/22 10:41:12;;;;;;;10.70;3.30;;;;;;;-140.66;100.00;55571.53;5101273;28;20038;-75
2023/07/22 10:44:00;;;;;;;7.72;2.90;;;;;;;-140.66;100.00;55571.53;5115332;28;20034;-75
2023/07/22 10:46:57;;;;;;;5.15;2.60;;;;;;;-140.66;100.00;55571.53;5100576;28;20039;-75
2023/07/22 10:49:45;;;;;;;7.15;2.75;;;;;;;-140.66;100.00;55571.53;5114353;28;20454;-76
2023/07/22 10:52:45;;;;;;;15.38;2.63;;;;;;;-140.66;100.00;55571.53;5101153;28;20093;-75
2023/07/22 10:55:30;;;;;;;7.55;2.60;;;;;;;-140.66;100.00;55571.53;5114951;28;20020;-75
2023/07/22 10:58:20;;;;;;;9.20;3.00;;;;;;;-140.66;100.00;55571.53;5115307;28;20429;-76
2023/07/22 11:01:24;;;;;;;6.68;2.70;;;;;;;-140.66;100.00;55571.53;5100616;28;20031;-76
2023/07/22 11:04:16;;;;;;;14.98;3.08;;;;;;;-140.66;100.00;55571.53;5099472;28;20513;-75
2023/07/22 11:07:06;;;;;;;7.90;2.70;;;;;;;-140.66;100.00;55571.53;5114651;28;20110;-73
2023/07/22 11:09:54;;;;;;;8.65;2.85;;;;;;;-140.66;100.00;55571.53;5114134;28;20020;-75
2023/07/22 11:12:43;;;;;;;15.13;2.60;;;;;;;-140.66;100.00;55571.53;5114266;28;20372;-75
2023/07/22 11:15:29;;;;;;;13.98;3.17;;;;;;;-140.66;100.00;55571.53;5114803;28;20036;-76
2023/07/22 11:18:15;;;;;;;9.30;3.03;;;;;;;-140.66;100.00;55571.53;5119042;28;20033;-75
2023/07/22 11:21:00;;;;;;;9.20;3.10;;;;;;;-140.66;100.00;55571.53;5117695;28;20569;-76
2023/07/22 11:23:47;;;;;;;7.10;2.70;;;;;;;-140.66;100.00;55571.53;5118374;28;20039;-76
2023/07/22 11:26:33;;;;;;;15.77;3.00;;;;;;;-140.66;100.00;55571.53;5118984;28;20436;-75
2023/07/22 11:29:19;;;;;;;5.45;2.78;;;;;;;-140.66;100.00;55571.53;5103112;28;20065;-75
2023/07/22 11:32:05;;;;;;;10.02;2.85;;;;;;;-140.66;100.00;55571.53;5118933;28;20027;-75
2023/07/22 11:34:55;;;;;;;11.48;2.60;;;;;;;-140.66;100.00;55571.53;5118111;28;20066;-75
2023/07/22 11:37:42;;;;;;;8.70;2.60;;;;;;;-140.66;100.00;55571.53;5117007;28;20101;-75
2023/07/22 11:40:34;;;;;;;9.48;2.80;;;;;;;-140.66;100.00;55571.53;5104800;28;20031;-76
2023/07/22 11:43:20;;;;;;;9.05;2.55;;;;;;;-140.66;100.00;55571.53;5119036;28;20492;-76
2023/07/22 11:46:06;;;;;;;10.00;2.30;;;;;;;-140.66;100.00;55571.53;5103363;28;20062;-75
2023/07/22 11:48:53;;;;;;;4.32;2.30;;;;;;;-140.66;100.00;55571.53;5116199;28;20030;-75
2023/07/22 11:51:42;;;;;;;11.77;2.42;;;;;;;-140.66;100.00;55571.53;5118160;28;20100;-76
2023/07/22 11:54:29;;;;;;;6.30;2.33;;;;;;;-140.66;100.00;55571.53;5118130;28;20032;-75
2023/07/22 11:57:16;;;;;;;13.30;3.05;;;;;;;-140.66;100.00;55571.53;5118054;28;20023;-74
2023/07/22 12:00:03;;;;;;;11.18;2.90;;;;;;;-140.66;100.00;55571.53;5103827;28;20034;-75
2023/07/22 12:02:48;;;;;;;5.68;2.58;;;;;;;-140.66;100.00;55571.53;5103398;28;20043;-75
2023/07/22 12:05:37;;;;;;;9.73;2.60;;;;;;;-140.66;100.00;55571.53;5117725;28;20031;-76
2023/07/22 12:08:23;;;;;;;9.07;2.65;;;;;;;-140.66;100.00;55571.53;5117413;28;20023;-75
2023/07/22 12:11:15;;;;;;;10.23;2.40;;;;;;;-140.66;100.00;55571.53;5102191;28;20529;-76
2023/07/22 12:14:12;;;;;;;11.90;2.90;;;;;;;-140.66;100.00;55571.53;5117410;28;20088;-76
2023/07/22 12:16:58;;;;;;;8.15;2.88;;;;;;;-140.66;100.00;55571.53;5116891;28;20059;-75
2023/07/22 12:19:53;;;;;;;8.02;2.95;;;;;;;-140.66;100.00;55571.53;5116671;28;20063;-76
2023/07/22 12:22:39;;;;;;;8.20;2.95;;;;;;;-140.66;100.00;55571.53;5116923;28;20057;-75
2023/07/22 12:25:25;;;;;;;5.72;2.58;;;;;;;-140.66;100.00;55571.53;5117189;28;20038;-76
2023/07/22 12:28:11;;;;;;;9.13;3.05;;;;;;;-140.66;100.00;55571.53;5102997;28;20333;-76
2023/07/22 12:30:57;;;;;;;8.95;2.60;;;;;;;-140.66;100.00;55571.53;5117079;28;20034;-75
2023/07/22 12:33:43;;;;;;;9.50;2.80;;;;;;;-140.66;100.00;55571.53;5104058;28;20464;-75